sensor_id;sensor_type;location;lat;lon;timestamp;pressure;altitude;pressure_sealevel;temperature;humidity
64230;BME280;50547;49.498;0.092;2022-12-07T00:01:51;1017;;;10.26;76.45
64230;BME280;50547;49.498;0.092;2022-12-07T00:04:20;1017;;;10.10;76.74
64230;BME280;50547;49.498;0.092;2022-12-07T00:06:51;1017;;;9.95;76.94
64230;BME280;50547;49.498;0.092;2022-12-07T00:09:21;1017;;;9.82;77.46
64230;BME280;50547;49.498;0.092;2022-12-07T00:11:51;1017;;;9.69;77.53
64230;BME280;50547;49.498;0.092;2022-12-07T00:14:20;1017;;;9.61;77.48
64230;BME280;50547;49.498;0.092;2022-12-07T00:16:51;1017;;;9.58;77.58
64230;BME280;50547;49.498;0.092;2022-12-07T00:19:20;1017;;;9.64;77.34
64230;BME280;50547;49.498;0.092;2022-12-07T00:21:49;1017;;;9.74;76.88
64230;BME280;50547;49.498;0.092;2022-12-07T00:24:18;1017;;;9.74;76.73
64230;BME280;50547;49.498;0.092;2022-12-07T00:26:47;1017;;;9.82;76.62
64230;BME280;50547;49.498;0.092;2022-12-07T00:29:20;1017;;;9.73;76.87
64230;BME280;50547;49.498;0.092;2022-12-07T00:31:49;1017;;;9.62;77.15
64230;BME280;50547;49.498;0.092;2022-12-07T00:34:20;1017;;;9.27;78.41
64230;BME280;50547;49.498;0.092;2022-12-07T00:36:50;1017;;;9.24;78.34
64230;BME280;50547;49.498;0.092;2022-12-07T00:39:19;1017;;;9.38;77.69
64230;BME280;50547;49.498;0.092;2022-12-07T00:41:48;1017;;;9.26;78.02
64230;BME280;50547;49.498;0.092;2022-12-07T00:44:17;1017;;;9.10;78.63
64230;BME280;50547;49.498;0.092;2022-12-07T00:46:46;1017;;;8.99;79.11
64230;BME280;50547;49.498;0.092;2022-12-07T00:49:16;1017;;;9.07;78.66
64230;BME280;50547;49.498;0.092;2022-12-07T00:51:47;1017;;;8.97;79.00
64230;BME280;50547;49.498;0.092;2022-12-07T00:54:16;1017;;;8.87;79.51
64230;BME280;50547;49.498;0.092;2022-12-07T00:56:45;1017;;;8.78;79.78
64230;BME280;50547;49.498;0.092;2022-12-07T00:59:15;1017;;;8.68;80.08
64230;BME280;50547;49.498;0.092;2022-12-07T01:01:44;1017;;;8.81;79.37
64230;BME280;50547;49.498;0.092;2022-12-07T01:04:13;1017;;;8.67;80.03
64230;BME280;50547;49.498;0.092;2022-12-07T01:06:42;1017;;;8.59;80.33
64230;BME280;50547;49.498;0.092;2022-12-07T01:09:12;1017;;;8.88;79.14
64230;BME280;50547;49.498;0.092;2022-12-07T01:11:41;1017;;;9.06;78.39
64230;BME280;50547;49.498;0.092;2022-12-07T01:14:10;1017;;;8.97;79.11
64230;BME280;50547;49.498;0.092;2022-12-07T01:16:39;1017;;;8.99;79.16
64230;BME280;50547;49.498;0.092;2022-12-07T01:19:08;1017;;;8.65;80.57
64230;BME280;50547;49.498;0.092;2022-12-07T01:21:38;1017;;;8.76;80.18
64230;BME280;50547;49.498;0.092;2022-12-07T01:24:09;1017;;;8.79;79.91
64230;BME280;50547;49.498;0.092;2022-12-07T01:26:39;1017;;;8.91;79.49
64230;BME280;50547;49.498;0.092;2022-12-07T01:29:09;1017;;;8.86;79.79
64230;BME280;50547;49.498;0.092;2022-12-07T01:31:38;1017;;;8.79;80.17
64230;BME280;50547;49.498;0.092;2022-12-07T01:34:08;1017;;;9.03;79.19
64230;BME280;50547;49.498;0.092;2022-12-07T01:36:37;1017;;;9.21;78.23
64230;BME280;50547;49.498;0.092;2022-12-07T01:39:09;1017;;;9.43;77.80
64230;BME280;50547;49.498;0.092;2022-12-07T01:41:40;1017;;;9.50;78.14
64230;BME280;50547;49.498;0.092;2022-12-07T01:44:20;1017;;;9.63;78.08
64230;BME280;50547;49.498;0.092;2022-12-07T01:46:51;1017;;;9.63;78.37
64230;BME280;50547;49.498;0.092;2022-12-07T01:49:26;1017;;;9.69;78.46
64230;BME280;50547;49.498;0.092;2022-12-07T01:52:03;1017;;;9.77;78.31
64230;BME280;50547;49.498;0.092;2022-12-07T01:54:35;1017;;;9.86;77.15
64230;BME280;50547;49.498;0.092;2022-12-07T01:57:06;1017;;;9.91;77.60
64230;BME280;50547;49.498;0.092;2022-12-07T01:59:37;1017;;;9.95;77.53
64230;BME280;50547;49.498;0.092;2022-12-07T02:02:10;1017;;;10.01;77.40
64230;BME280;50547;49.498;0.092;2022-12-07T02:04:42;1017;;;10.03;77.29
64230;BME280;50547;49.498;0.092;2022-12-07T02:07:12;1017;;;10.05;77.43
64230;BME280;50547;49.498;0.092;2022-12-07T02:09:41;1017;;;10.05;77.52
64230;BME280;50547;49.498;0.092;2022-12-07T02:12:10;1017;;;10.12;77.30
64230;BME280;50547;49.498;0.092;2022-12-07T02:14:40;1017;;;10.15;77.16
64230;BME280;50547;49.498;0.092;2022-12-07T02:17:14;1017;;;10.17;77.17
64230;BME280;50547;49.498;0.092;2022-12-07T02:20:29;1017;;;10.21;77.11
64230;BME280;50547;49.498;0.092;2022-12-07T02:26:46;1017;;;10.09;77.30
64230;BME280;50547;49.498;0.092;2022-12-07T02:29:22;1017;;;10.18;77.09
64230;BME280;50547;49.498;0.092;2022-12-07T02:31:58;1017;;;10.15;77.21
64230;BME280;50547;49.498;0.092;2022-12-07T02:34:38;1017;;;10.23;77.04
64230;BME280;50547;49.498;0.092;2022-12-07T02:37:14;1017;;;10.00;77.75
64230;BME280;50547;49.498;0.092;2022-12-07T02:39:53;1017;;;9.74;77.59
64230;BME280;50547;49.498;0.092;2022-12-07T02:42:26;1017;;;9.70;77.81
64230;BME280;50547;49.498;0.092;2022-12-07T02:44:57;1017;;;9.76;77.42
64230;BME280;50547;49.498;0.092;2022-12-07T02:47:28;1017;;;9.77;77.44
64230;BME280;50547;49.498;0.092;2022-12-07T02:49:58;1017;;;9.78;77.39
64230;BME280;50547;49.498;0.092;2022-12-07T02:52:28;1017;;;9.69;76.80
64230;BME280;50547;49.498;0.092;2022-12-07T02:54:57;1017;;;9.41;77.73
64230;BME280;50547;49.498;0.092;2022-12-07T02:57:36;1017;;;9.23;78.56
64230;BME280;50547;49.498;0.092;2022-12-07T03:00:12;1017;;;9.29;78.42
64230;BME280;50547;49.498;0.092;2022-12-07T03:02:50;1017;;;9.31;78.45
64230;BME280;50547;49.498;0.092;2022-12-07T03:05:33;1017;;;9.52;77.73
64230;BME280;50547;49.498;0.092;2022-12-07T03:08:12;1017;;;9.77;77.16
64230;BME280;50547;49.498;0.092;2022-12-07T03:10:50;1017;;;9.81;77.44
64230;BME280;50547;49.498;0.092;2022-12-07T03:13:28;1017;;;9.93;76.98
64230;BME280;50547;49.498;0.092;2022-12-07T03:16:02;1017;;;9.76;77.89
64230;BME280;50547;49.498;0.092;2022-12-07T03:18:37;1016;;;9.84;77.55
64230;BME280;50547;49.498;0.092;2022-12-07T03:21:11;1017;;;9.81;77.95
64230;BME280;50547;49.498;0.092;2022-12-07T03:23:44;1017;;;9.91;77.66
64230;BME280;50547;49.498;0.092;2022-12-07T03:26:18;1017;;;9.90;77.82
64230;BME280;50547;49.498;0.092;2022-12-07T03:28:52;1017;;;9.69;78.75
64230;BME280;50547;49.498;0.092;2022-12-07T03:31:28;1017;;;9.86;78.17
64230;BME280;50547;49.498;0.092;2022-12-07T03:34:02;1017;;;9.87;78.15
64230;BME280;50547;49.498;0.092;2022-12-07T03:36:38;1017;;;10.05;77.70
64230;BME280;50547;49.498;0.092;2022-12-07T03:39:16;1017;;;9.97;78.08
64230;BME280;50547;49.498;0.092;2022-12-07T03:41:46;1017;;;9.97;78.12
64230;BME280;50547;49.498;0.092;2022-12-07T03:44:16;1017;;;9.90;78.27
64230;BME280;50547;49.498;0.092;2022-12-07T03:46:52;1017;;;9.93;78.16
64230;BME280;50547;49.498;0.092;2022-12-07T03:49:31;1016;;;9.80;78.48
64230;BME280;50547;49.498;0.092;2022-12-07T03:52:11;1017;;;9.88;78.17
64230;BME280;50547;49.498;0.092;2022-12-07T03:54:45;1017;;;9.91;78.04
64230;BME280;50547;49.498;0.092;2022-12-07T03:57:17;1017;;;9.68;78.89
64230;BME280;50547;49.498;0.092;2022-12-07T03:59:47;1017;;;9.63;79.03
64230;BME280;50547;49.498;0.092;2022-12-07T04:02:16;1017;;;9.40;79.91
64230;BME280;50547;49.498;0.092;2022-12-07T04:04:46;1016;;;9.57;78.99
64230;BME280;50547;49.498;0.092;2022-12-07T04:07:16;1016;;;9.63;78.75
64230;BME280;50547;49.498;0.092;2022-12-07T04:09:45;1016;;;9.51;79.24
64230;BME280;50547;49.498;0.092;2022-12-07T04:12:14;1016;;;9.52;79.12
64230;BME280;50547;49.498;0.092;2022-12-07T04:14:43;1016;;;9.10;81.09
64230;BME280;50547;49.498;0.092;2022-12-07T04:17:12;1016;;;8.92;81.92
64230;BME280;50547;49.498;0.092;2022-12-07T04:19:42;1016;;;9.02;81.05
64230;BME280;50547;49.498;0.092;2022-12-07T04:22:11;1016;;;9.06;80.62
64230;BME280;50547;49.498;0.092;2022-12-07T04:24:40;1016;;;9.36;79.19
64230;BME280;50547;49.498;0.092;2022-12-07T04:27:09;1016;;;9.13;80.13
64230;BME280;50547;49.498;0.092;2022-12-07T04:29:38;1016;;;9.42;79.18
64230;BME280;50547;49.498;0.092;2022-12-07T04:32:08;1016;;;9.30;79.59
64230;BME280;50547;49.498;0.092;2022-12-07T04:34:37;1016;;;9.28;79.81
64230;BME280;50547;49.498;0.092;2022-12-07T04:37:06;1016;;;9.15;80.13
64230;BME280;50547;49.498;0.092;2022-12-07T04:39:35;1016;;;9.23;79.70
64230;BME280;50547;49.498;0.092;2022-12-07T04:42:04;1016;;;9.37;79.02
64230;BME280;50547;49.498;0.092;2022-12-07T04:44:34;1016;;;9.59;78.07
64230;BME280;50547;49.498;0.092;2022-12-07T04:47:03;1016;;;9.66;77.71
64230;BME280;50547;49.498;0.092;2022-12-07T04:49:32;1016;;;9.20;79.77
64230;BME280;50547;49.498;0.092;2022-12-07T04:52:02;1016;;;9.18;79.80
64230;BME280;50547;49.498;0.092;2022-12-07T04:54:31;1016;;;9.02;79.91
64230;BME280;50547;49.498;0.092;2022-12-07T04:57:00;1016;;;9.17;79.35
64230;BME280;50547;49.498;0.092;2022-12-07T04:59:30;1016;;;9.30;78.57
64230;BME280;50547;49.498;0.092;2022-12-07T05:01:59;1016;;;9.28;78.74
64230;BME280;50547;49.498;0.092;2022-12-07T05:04:28;1016;;;9.14;79.85
64230;BME280;50547;49.498;0.092;2022-12-07T05:06:57;1016;;;9.30;79.15
64230;BME280;50547;49.498;0.092;2022-12-07T05:09:26;1016;;;9.28;79.31
64230;BME280;50547;49.498;0.092;2022-12-07T05:11:55;1016;;;9.43;78.65
64230;BME280;50547;49.498;0.092;2022-12-07T05:14:25;1016;;;9.48;78.61
64230;BME280;50547;49.498;0.092;2022-12-07T05:16:54;1016;;;9.49;78.82
64230;BME280;50547;49.498;0.092;2022-12-07T05:19:23;1016;;;9.64;78.21
64230;BME280;50547;49.498;0.092;2022-12-07T05:21:52;1016;;;9.53;78.75
64230;BME280;50547;49.498;0.092;2022-12-07T05:24:22;1016;;;8.86;80.84
64230;BME280;50547;49.498;0.092;2022-12-07T05:26:51;1016;;;8.38;82.64
64230;BME280;50547;49.498;0.092;2022-12-07T05:29:20;1016;;;8.03;83.26
64230;BME280;50547;49.498;0.092;2022-12-07T05:31:49;1016;;;7.92;83.09
64230;BME280;50547;49.498;0.092;2022-12-07T05:34:18;1016;;;7.80;83.01
64230;BME280;50547;49.498;0.092;2022-12-07T05:36:48;1016;;;7.83;82.65
64230;BME280;50547;49.498;0.092;2022-12-07T05:39:17;1016;;;8.08;81.36
64230;BME280;50547;49.498;0.092;2022-12-07T05:41:46;1016;;;8.20;80.92
64230;BME280;50547;49.498;0.092;2022-12-07T05:44:15;1016;;;8.26;81.09
64230;BME280;50547;49.498;0.092;2022-12-07T05:46:44;1016;;;8.41;80.80
64230;BME280;50547;49.498;0.092;2022-12-07T05:49:13;1016;;;8.60;80.28
64230;BME280;50547;49.498;0.092;2022-12-07T05:51:43;1016;;;8.77;79.98
64230;BME280;50547;49.498;0.092;2022-12-07T05:54:12;1016;;;8.81;80.43
64230;BME280;50547;49.498;0.092;2022-12-07T05:56:41;1016;;;8.92;80.27
64230;BME280;50547;49.498;0.092;2022-12-07T05:59:10;1016;;;9.14;79.71
64230;BME280;50547;49.498;0.092;2022-12-07T06:01:40;1016;;;9.10;80.07
64230;BME280;50547;49.498;0.092;2022-12-07T06:04:09;1016;;;8.53;82.78
64230;BME280;50547;49.498;0.092;2022-12-07T06:06:38;1016;;;8.47;82.96
64230;BME280;50547;49.498;0.092;2022-12-07T06:09:07;1016;;;8.66;81.65
64230;BME280;50547;49.498;0.092;2022-12-07T06:11:37;1016;;;8.70;81.25
64230;BME280;50547;49.498;0.092;2022-12-07T06:14:06;1016;;;8.35;82.76
64230;BME280;50547;49.498;0.092;2022-12-07T06:16:35;1016;;;8.55;81.98
64230;BME280;50547;49.498;0.092;2022-12-07T06:19:04;1016;;;8.64;81.28
64230;BME280;50547;49.498;0.092;2022-12-07T06:21:33;1016;;;8.67;81.09
64230;BME280;50547;49.498;0.092;2022-12-07T06:24:03;1016;;;8.75;80.76
64230;BME280;50547;49.498;0.092;2022-12-07T06:26:32;1016;;;8.68;81.01
64230;BME280;50547;49.498;0.092;2022-12-07T06:29:01;1016;;;8.66;80.91
64230;BME280;50547;49.498;0.092;2022-12-07T06:31:31;1016;;;8.59;81.54
64230;BME280;50547;49.498;0.092;2022-12-07T06:34:02;1016;;;8.81;80.66
64230;BME280;50547;49.498;0.092;2022-12-07T06:36:32;1016;;;8.67;81.68
64230;BME280;50547;49.498;0.092;2022-12-07T06:39:02;1016;;;8.32;83.69
64230;BME280;50547;49.498;0.092;2022-12-07T06:41:32;1016;;;8.49;82.74
64230;BME280;50547;49.498;0.092;2022-12-07T06:44:01;1016;;;8.76;81.15
64230;BME280;50547;49.498;0.092;2022-12-07T06:46:30;1016;;;8.93;80.76
64230;BME280;50547;49.498;0.092;2022-12-07T06:48:59;1016;;;9.06;80.56
64230;BME280;50547;49.498;0.092;2022-12-07T06:51:29;1016;;;9.27;80.29
64230;BME280;50547;49.498;0.092;2022-12-07T06:53:58;1016;;;9.38;80.22
64230;BME280;50547;49.498;0.092;2022-12-07T06:56:27;1016;;;9.56;79.99
64230;BME280;50547;49.498;0.092;2022-12-07T06:58:56;1016;;;9.45;80.49
64230;BME280;50547;49.498;0.092;2022-12-07T07:01:25;1016;;;9.52;79.97
64230;BME280;50547;49.498;0.092;2022-12-07T07:03:54;1016;;;9.57;79.89
64230;BME280;50547;49.498;0.092;2022-12-07T07:06:24;1016;;;9.56;79.79
64230;BME280;50547;49.498;0.092;2022-12-07T07:08:53;1016;;;9.62;79.63
64230;BME280;50547;49.498;0.092;2022-12-07T07:11:22;1016;;;9.64;79.61
64230;BME280;50547;49.498;0.092;2022-12-07T07:13:51;1016;;;9.59;79.87
64230;BME280;50547;49.498;0.092;2022-12-07T07:16:21;1016;;;9.41;80.27
64230;BME280;50547;49.498;0.092;2022-12-07T07:18:50;1016;;;9.30;80.53
64230;BME280;50547;49.498;0.092;2022-12-07T07:21:19;1016;;;9.14;80.88
64230;BME280;50547;49.498;0.092;2022-12-07T07:23:49;1016;;;9.12;80.76
64230;BME280;50547;49.498;0.092;2022-12-07T07:26:18;1016;;;8.88;81.37
64230;BME280;50547;49.498;0.092;2022-12-07T07:28:47;1016;;;8.83;81.54
64230;BME280;50547;49.498;0.092;2022-12-07T07:31:16;1016;;;8.64;81.87
64230;BME280;50547;49.498;0.092;2022-12-07T07:33:46;1016;;;8.50;82.30
64230;BME280;50547;49.498;0.092;2022-12-07T07:36:15;1016;;;8.37;82.64
64230;BME280;50547;49.498;0.092;2022-12-07T07:38:44;1016;;;8.34;82.42
64230;BME280;50547;49.498;0.092;2022-12-07T07:41:13;1016;;;8.34;82.36
64230;BME280;50547;49.498;0.092;2022-12-07T07:43:42;1016;;;8.34;82.32
64230;BME280;50547;49.498;0.092;2022-12-07T07:46:12;1016;;;8.39;82.13
64230;BME280;50547;49.498;0.092;2022-12-07T07:48:41;1016;;;8.41;82.22
64230;BME280;50547;49.498;0.092;2022-12-07T07:51:10;1016;;;8.43;82.28
64230;BME280;50547;49.498;0.092;2022-12-07T07:53:45;1016;;;8.30;82.87
64230;BME280;50547;49.498;0.092;2022-12-07T07:56:14;1016;;;8.14;83.65
64230;BME280;50547;49.498;0.092;2022-12-07T07:58:51;1016;;;8.20;83.39
64230;BME280;50547;49.498;0.092;2022-12-07T08:01:17;1016;;;8.08;83.94
64230;BME280;50547;49.498;0.092;2022-12-07T08:03:47;1016;;;8.06;84.07
64230;BME280;50547;49.498;0.092;2022-12-07T08:06:16;1016;;;8.22;83.14
64230;BME280;50547;49.498;0.092;2022-12-07T08:08:45;1016;;;8.32;82.92
64230;BME280;50547;49.498;0.092;2022-12-07T08:11:15;1016;;;8.25;83.19
64230;BME280;50547;49.498;0.092;2022-12-07T08:13:45;1016;;;8.01;84.21
64230;BME280;50547;49.498;0.092;2022-12-07T08:16:15;1016;;;8.10;83.69
64230;BME280;50547;49.498;0.092;2022-12-07T08:18:45;1016;;;8.08;83.64
64230;BME280;50547;49.498;0.092;2022-12-07T08:21:15;1016;;;8.00;83.88
64230;BME280;50547;49.498;0.092;2022-12-07T08:23:44;1016;;;7.92;84.23
64230;BME280;50547;49.498;0.092;2022-12-07T08:26:15;1016;;;7.87;84.25
64230;BME280;50547;49.498;0.092;2022-12-07T08:28:45;1017;;;8.15;82.92
64230;BME280;50547;49.498;0.092;2022-12-07T08:31:16;1017;;;8.21;82.52
64230;BME280;50547;49.498;0.092;2022-12-07T08:33:44;1017;;;8.05;83.26
64230;BME280;50547;49.498;0.092;2022-12-07T08:36:14;1017;;;8.16;82.77
64230;BME280;50547;49.498;0.092;2022-12-07T08:38:49;1016;;;8.17;82.82
64230;BME280;50547;49.498;0.092;2022-12-07T08:41:18;1016;;;8.26;82.68
64230;BME280;50547;49.498;0.092;2022-12-07T08:43:48;1017;;;8.33;82.41
64230;BME280;50547;49.498;0.092;2022-12-07T08:46:19;1017;;;8.30;82.52
64230;BME280;50547;49.498;0.092;2022-12-07T08:48:54;1017;;;8.30;82.45
64230;BME280;50547;49.498;0.092;2022-12-07T08:51:25;1017;;;8.42;81.98
64230;BME280;50547;49.498;0.092;2022-12-07T08:53:56;1017;;;8.38;82.15
64230;BME280;50547;49.498;0.092;2022-12-07T08:56:27;1017;;;8.66;81.36
64230;BME280;50547;49.498;0.092;2022-12-07T08:59:07;1017;;;8.82;81.04
64230;BME280;50547;49.498;0.092;2022-12-07T09:01:37;1017;;;8.93;81.14
64230;BME280;50547;49.498;0.092;2022-12-07T09:04:06;1017;;;8.99;80.97
64230;BME280;50547;49.498;0.092;2022-12-07T09:06:35;1017;;;8.60;82.17
64230;BME280;50547;49.498;0.092;2022-12-07T09:09:06;1017;;;8.66;81.89
64230;BME280;50547;49.498;0.092;2022-12-07T09:11:35;1017;;;8.86;80.89
64230;BME280;50547;49.498;0.092;2022-12-07T09:14:04;1017;;;8.96;80.61
64230;BME280;50547;49.498;0.092;2022-12-07T09:16:34;1017;;;9.07;80.38
64230;BME280;50547;49.498;0.092;2022-12-07T09:19:03;1017;;;9.07;80.40
64230;BME280;50547;49.498;0.092;2022-12-07T09:21:30;1017;;;8.73;81.34
64230;BME280;50547;49.498;0.092;2022-12-07T09:23:59;1017;;;8.89;80.77
64230;BME280;50547;49.498;0.092;2022-12-07T09:26:34;1017;;;9.20;79.76
64230;BME280;50547;49.498;0.092;2022-12-07T09:29:04;1017;;;9.18;79.81
64230;BME280;50547;49.498;0.092;2022-12-07T09:31:35;1017;;;9.28;79.67
64230;BME280;50547;49.498;0.092;2022-12-07T09:34:05;1017;;;9.41;79.38
64230;BME280;50547;49.498;0.092;2022-12-07T09:36:34;1017;;;9.49;79.27
64230;BME280;50547;49.498;0.092;2022-12-07T09:39:03;1017;;;9.56;79.09
64230;BME280;50547;49.498;0.092;2022-12-07T09:41:33;1017;;;9.54;78.91
64230;BME280;50547;49.498;0.092;2022-12-07T09:44:28;1017;;;9.44;79.02
64230;BME280;50547;49.498;0.092;2022-12-07T09:46:57;1017;;;9.28;79.24
64230;BME280;50547;49.498;0.092;2022-12-07T09:49:29;1017;;;9.26;78.88
64230;BME280;50547;49.498;0.092;2022-12-07T09:52:02;1017;;;9.33;78.51
64230;BME280;50547;49.498;0.092;2022-12-07T09:54:34;1017;;;9.34;78.39
64230;BME280;50547;49.498;0.092;2022-12-07T09:57:04;1017;;;9.18;78.90
64230;BME280;50547;49.498;0.092;2022-12-07T09:59:34;1017;;;9.40;78.11
64230;BME280;50547;49.498;0.092;2022-12-07T10:02:24;1016;;;9.50;77.66
64230;BME280;50547;49.498;0.092;2022-12-07T10:04:55;1017;;;9.45;77.76
64230;BME280;50547;49.498;0.092;2022-12-07T10:07:26;1016;;;9.75;76.73
64230;BME280;50547;49.498;0.092;2022-12-07T10:09:55;1016;;;9.95;76.36
64230;BME280;50547;49.498;0.092;2022-12-07T10:12:25;1016;;;10.27;75.85
64230;BME280;50547;49.498;0.092;2022-12-07T10:14:56;1016;;;10.24;76.15
64230;BME280;50547;49.498;0.092;2022-12-07T10:17:35;1016;;;10.02;76.77
64230;BME280;50547;49.498;0.092;2022-12-07T10:20:22;1016;;;9.83;77.29
64230;BME280;50547;49.498;0.092;2022-12-07T10:22:57;1017;;;9.62;78.04
64230;BME280;50547;49.498;0.092;2022-12-07T10:25:29;1017;;;9.36;78.53
64230;BME280;50547;49.498;0.092;2022-12-07T10:28:03;1016;;;9.52;77.52
64230;BME280;50547;49.498;0.092;2022-12-07T10:30:49;1016;;;9.43;77.52
64230;BME280;50547;49.498;0.092;2022-12-07T10:33:36;1016;;;9.53;77.06
64230;BME280;50547;49.498;0.092;2022-12-07T10:36:18;1016;;;9.17;78.13
64230;BME280;50547;49.498;0.092;2022-12-07T10:38:49;1016;;;9.18;77.94
64230;BME280;50547;49.498;0.092;2022-12-07T10:41:24;1016;;;9.01;78.39
64230;BME280;50547;49.498;0.092;2022-12-07T10:43:55;1016;;;9.24;77.52
64230;BME280;50547;49.498;0.092;2022-12-07T10:47:34;1016;;;9.55;76.55
64230;BME280;50547;49.498;0.092;2022-12-07T10:50:18;1016;;;9.61;76.67
64230;BME280;50547;49.498;0.092;2022-12-07T10:53:06;1016;;;10.01;75.65
64230;BME280;50547;49.498;0.092;2022-12-07T10:55:52;1016;;;9.70;76.95
64230;BME280;50547;49.498;0.092;2022-12-07T10:58:35;1016;;;9.63;77.72
64230;BME280;50547;49.498;0.092;2022-12-07T11:01:13;1016;;;9.50;78.30
64230;BME280;50547;49.498;0.092;2022-12-07T11:03:58;1016;;;9.41;78.30
64230;BME280;50547;49.498;0.092;2022-12-07T11:06:35;1016;;;9.66;77.41
64230;BME280;50547;49.498;0.092;2022-12-07T11:09:44;1016;;;9.71;77.23
64230;BME280;50547;49.498;0.092;2022-12-07T11:12:24;1016;;;10.12;76.19
64230;BME280;50547;49.498;0.092;2022-12-07T11:15:02;1016;;;10.10;76.23
64230;BME280;50547;49.498;0.092;2022-12-07T11:17:42;1016;;;10.06;76.71
64230;BME280;50547;49.498;0.092;2022-12-07T11:20:29;1016;;;10.13;76.68
64230;BME280;50547;49.498;0.092;2022-12-07T11:23:24;1016;;;10.19;76.57
64230;BME280;50547;49.498;0.092;2022-12-07T11:25:58;1016;;;9.92;77.57
64230;BME280;50547;49.498;0.092;2022-12-07T11:28:50;1016;;;9.80;77.77
64230;BME280;50547;49.498;0.092;2022-12-07T11:31:31;1016;;;9.93;76.77
64230;BME280;50547;49.498;0.092;2022-12-07T11:34:08;1016;;;10.02;76.23
64230;BME280;50547;49.498;0.092;2022-12-07T11:36:42;1016;;;9.92;76.84
64230;BME280;50547;49.498;0.092;2022-12-07T11:39:23;1016;;;9.74;77.56
64230;BME280;50547;49.498;0.092;2022-12-07T11:42:00;1016;;;10.04;76.40
64230;BME280;50547;49.498;0.092;2022-12-07T11:44:34;1016;;;10.35;75.51
64230;BME280;50547;49.498;0.092;2022-12-07T11:47:09;1016;;;10.59;74.72
64230;BME280;50547;49.498;0.092;2022-12-07T11:49:44;1016;;;10.82;74.51
64230;BME280;50547;49.498;0.092;2022-12-07T11:52:22;1016;;;10.89;74.35
64230;BME280;50547;49.498;0.092;2022-12-07T11:54:54;1016;;;10.96;74.43
64230;BME280;50547;49.498;0.092;2022-12-07T11:57:30;1016;;;11.07;74.21
64230;BME280;50547;49.498;0.092;2022-12-07T12:00:05;1016;;;11.15;74.00
64230;BME280;50547;49.498;0.092;2022-12-07T12:02:39;1015;;;10.57;75.33
64230;BME280;50547;49.498;0.092;2022-12-07T12:05:16;1015;;;10.49;75.15
64230;BME280;50547;49.498;0.092;2022-12-07T12:07:48;1015;;;10.25;75.08
64230;BME280;50547;49.498;0.092;2022-12-07T12:10:27;1015;;;10.40;74.56
64230;BME280;50547;49.498;0.092;2022-12-07T12:13:15;1015;;;10.63;74.11
64230;BME280;50547;49.498;0.092;2022-12-07T12:16:01;1015;;;10.52;74.74
64230;BME280;50547;49.498;0.092;2022-12-07T12:18:43;1015;;;10.66;74.73
64230;BME280;50547;49.498;0.092;2022-12-07T12:21:17;1015;;;10.89;74.12
64230;BME280;50547;49.498;0.092;2022-12-07T12:23:51;1015;;;10.79;74.26
64230;BME280;50547;49.498;0.092;2022-12-07T12:26:26;1015;;;10.53;75.01
64230;BME280;50547;49.498;0.092;2022-12-07T12:28:56;1015;;;10.80;73.98
64230;BME280;50547;49.498;0.092;2022-12-07T12:31:37;1015;;;10.94;73.67
64230;BME280;50547;49.498;0.092;2022-12-07T12:34:59;1015;;;10.54;74.59
64230;BME280;50547;49.498;0.092;2022-12-07T12:38:26;1015;;;10.95;73.63
64230;BME280;50547;49.498;0.092;2022-12-07T12:40:55;1015;;;11.01;73.60
64230;BME280;50547;49.498;0.092;2022-12-07T12:43:51;1015;;;11.04;73.39
64230;BME280;50547;49.498;0.092;2022-12-07T12:46:47;1015;;;10.82;73.91
64230;BME280;50547;49.498;0.092;2022-12-07T12:50:23;1015;;;10.74;73.92
64230;BME280;50547;49.498;0.092;2022-12-07T12:53:28;1015;;;10.56;74.11
64230;BME280;50547;49.498;0.092;2022-12-07T12:56:25;1015;;;10.60;73.58
64230;BME280;50547;49.498;0.092;2022-12-07T12:59:22;1015;;;10.87;72.83
64230;BME280;50547;49.498;0.092;2022-12-07T13:01:55;1015;;;10.76;73.03
64230;BME280;50547;49.498;0.092;2022-12-07T13:04:51;1015;;;10.77;72.86
64230;BME280;50547;49.498;0.092;2022-12-07T13:07:57;1015;;;10.98;72.13
64230;BME280;50547;49.498;0.092;2022-12-07T13:10:38;1015;;;12.29;67.74
64230;BME280;50547;49.498;0.092;2022-12-07T13:13:40;1015;;;12.28;67.53
64230;BME280;50547;49.498;0.092;2022-12-07T13:16:42;1015;;;12.73;66.29
64230;BME280;50547;49.498;0.092;2022-12-07T13:19:53;1015;;;13.29;65.82
64230;BME280;50547;49.498;0.092;2022-12-07T13:22:39;1015;;;12.40;67.80
64230;BME280;50547;49.498;0.092;2022-12-07T13:25:23;1015;;;12.42;68.72
64230;BME280;50547;49.498;0.092;2022-12-07T13:28:01;1015;;;11.63;69.39
64230;BME280;50547;49.498;0.092;2022-12-07T13:30:28;1015;;;11.88;69.01
64230;BME280;50547;49.498;0.092;2022-12-07T13:32:58;1015;;;11.77;68.99
64230;BME280;50547;49.498;0.092;2022-12-07T13:35:35;1014;;;11.82;68.42
64230;BME280;50547;49.498;0.092;2022-12-07T13:38:15;1014;;;11.75;68.90
64230;BME280;50547;49.498;0.092;2022-12-07T13:40:59;1014;;;11.85;68.82
64230;BME280;50547;49.498;0.092;2022-12-07T13:43:29;1014;;;11.84;68.72
64230;BME280;50547;49.498;0.092;2022-12-07T13:45:59;1014;;;11.53;69.09
64230;BME280;50547;49.498;0.092;2022-12-07T13:48:32;1014;;;11.45;68.35
64230;BME280;50547;49.498;0.092;2022-12-07T13:51:03;1014;;;11.44;68.63
64230;BME280;50547;49.498;0.092;2022-12-07T13:53:33;1014;;;11.66;68.00
64230;BME280;50547;49.498;0.092;2022-12-07T13:56:02;1014;;;11.49;68.42
64230;BME280;50547;49.498;0.092;2022-12-07T13:58:32;1014;;;11.28;69.35
64230;BME280;50547;49.498;0.092;2022-12-07T14:01:02;1014;;;11.08;69.89
64230;BME280;50547;49.498;0.092;2022-12-07T14:03:33;1014;;;10.78;71.27
64230;BME280;50547;49.498;0.092;2022-12-07T14:06:06;1014;;;10.50;72.40
64230;BME280;50547;49.498;0.092;2022-12-07T14:08:36;1014;;;10.14;73.01
64230;BME280;50547;49.498;0.092;2022-12-07T14:11:07;1014;;;9.88;74.26
64230;BME280;50547;49.498;0.092;2022-12-07T14:13:38;1014;;;9.19;76.08
64230;BME280;50547;49.498;0.092;2022-12-07T14:16:22;1014;;;8.97;76.62
64230;BME280;50547;49.498;0.092;2022-12-07T14:18:52;1014;;;8.61;78.40
64230;BME280;50547;49.498;0.092;2022-12-07T14:21:23;1014;;;8.60;78.71
64230;BME280;50547;49.498;0.092;2022-12-07T14:24:25;1014;;;8.28;78.61
64230;BME280;50547;49.498;0.092;2022-12-07T14:26:54;1014;;;8.16;78.50
64230;BME280;50547;49.498;0.092;2022-12-07T14:29:32;1014;;;8.30;77.65
64230;BME280;50547;49.498;0.092;2022-12-07T14:32:18;1014;;;8.45;77.18
64230;BME280;50547;49.498;0.092;2022-12-07T14:34:57;1014;;;8.18;78.50
64230;BME280;50547;49.498;0.092;2022-12-07T14:37:28;1014;;;8.03;79.17